sensor_id;sensor_type;location;lat;lon;timestamp;temperature;humidity
65146;DHT22;51730;56.950;24.126;2022-07-17T00:00:04;15.60;99.90
65146;DHT22;51730;56.950;24.126;2022-07-17T00:02:31;15.40;99.90
65146;DHT22;51730;56.950;24.126;2022-07-17T00:04:58;15.50;99.90
65146;DHT22;51730;56.950;24.126;2022-07-17T00:07:25;15.50;99.90
65146;DHT22;51730;56.950;24.126;2022-07-17T00:09:52;15.30;99.90
65146;DHT22;51730;56.950;24.126;2022-07-17T00:12:21;15.30;99.90
65146;DHT22;51730;56.950;24.126;2022-07-17T00:14:48;15.40;99.90
65146;DHT22;51730;56.950;24.126;2022-07-17T00:17:16;15.50;99.90
65146;DHT22;51730;56.950;24.126;2022-07-17T00:19:45;15.50;99.90
65146;DHT22;51730;56.950;24.126;2022-07-17T00:22:13;15.40;99.90
65146;DHT22;51730;56.950;24.126;2022-07-17T00:24:40;15.40;99.90
65146;DHT22;51730;56.950;24.126;2022-07-17T00:27:07;15.40;99.90
65146;DHT22;51730;56.950;24.126;2022-07-17T00:29:34;15.20;99.90
65146;DHT22;51730;56.950;24.126;2022-07-17T00:32:02;15.10;99.90
65146;DHT22;51730;56.950;24.126;2022-07-17T00:34:29;15.10;99.90
65146;DHT22;51730;56.950;24.126;2022-07-17T00:36:56;15.00;99.90
65146;DHT22;51730;56.950;24.126;2022-07-17T00:39:23;15.10;99.90
65146;DHT22;51730;56.950;24.126;2022-07-17T00:41:50;15.10;99.90
65146;DHT22;51730;56.950;24.126;2022-07-17T00:44:18;15.30;99.90
65146;DHT22;51730;56.950;24.126;2022-07-17T00:46:45;15.30;99.90
65146;DHT22;51730;56.950;24.126;2022-07-17T00:49:12;15.30;99.90
65146;DHT22;51730;56.950;24.126;2022-07-17T00:51:42;15.20;99.90
65146;DHT22;51730;56.950;24.126;2022-07-17T00:54:11;15.20;99.90
65146;DHT22;51730;56.950;24.126;2022-07-17T00:56:42;15.20;99.90
65146;DHT22;51730;56.950;24.126;2022-07-17T00:59:13;15.20;99.90
65146;DHT22;51730;56.950;24.126;2022-07-17T01:01:41;15.30;99.90
65146;DHT22;51730;56.950;24.126;2022-07-17T01:04:10;15.20;99.90
65146;DHT22;51730;56.950;24.126;2022-07-17T01:06:37;15.10;99.90
65146;DHT22;51730;56.950;24.126;2022-07-17T01:09:04;15.10;99.90
65146;DHT22;51730;56.950;24.126;2022-07-17T01:11:32;15.10;99.90
65146;DHT22;51730;56.950;24.126;2022-07-17T01:13:59;15.10;99.90
65146;DHT22;51730;56.950;24.126;2022-07-17T01:16:27;15.00;99.90
65146;DHT22;51730;56.950;24.126;2022-07-17T01:18:55;15.00;99.90
65146;DHT22;51730;56.950;24.126;2022-07-17T01:21:22;15.00;99.90
65146;DHT22;51730;56.950;24.126;2022-07-17T01:23:50;14.90;99.90
65146;DHT22;51730;56.950;24.126;2022-07-17T01:26:17;14.90;99.90
65146;DHT22;51730;56.950;24.126;2022-07-17T01:28:45;14.80;99.90
65146;DHT22;51730;56.950;24.126;2022-07-17T01:31:14;14.90;99.90
65146;DHT22;51730;56.950;24.126;2022-07-17T01:33:41;14.80;99.90
65146;DHT22;51730;56.950;24.126;2022-07-17T01:36:09;14.80;99.90
65146;DHT22;51730;56.950;24.126;2022-07-17T01:38:36;14.80;99.90
65146;DHT22;51730;56.950;24.126;2022-07-17T01:41:03;14.80;99.90
65146;DHT22;51730;56.950;24.126;2022-07-17T01:43:30;14.80;99.90
65146;DHT22;51730;56.950;24.126;2022-07-17T01:45:57;14.70;99.90
65146;DHT22;51730;56.950;24.126;2022-07-17T01:48:30;14.70;99.90
65146;DHT22;51730;56.950;24.126;2022-07-17T01:50:57;14.80;99.90
65146;DHT22;51730;56.950;24.126;2022-07-17T01:53:27;14.80;99.90
65146;DHT22;51730;56.950;24.126;2022-07-17T01:55:54;14.80;99.90
65146;DHT22;51730;56.950;24.126;2022-07-17T01:58:21;14.70;99.90
65146;DHT22;51730;56.950;24.126;2022-07-17T02:00:48;14.70;99.90
65146;DHT22;51730;56.950;24.126;2022-07-17T02:03:16;14.80;99.90
65146;DHT22;51730;56.950;24.126;2022-07-17T02:05:43;14.70;99.90
65146;DHT22;51730;56.950;24.126;2022-07-17T02:08:10;14.70;99.90
65146;DHT22;51730;56.950;24.126;2022-07-17T02:10:48;14.70;99.90
65146;DHT22;51730;56.950;24.126;2022-07-17T02:13:18;14.70;99.90
65146;DHT22;51730;56.950;24.126;2022-07-17T02:15:53;14.60;99.90
65146;DHT22;51730;56.950;24.126;2022-07-17T02:18:23;14.60;99.90
65146;DHT22;51730;56.950;24.126;2022-07-17T02:20:55;14.60;99.90
65146;DHT22;51730;56.950;24.126;2022-07-17T02:23:26;14.40;99.90
65146;DHT22;51730;56.950;24.126;2022-07-17T02:25:55;14.40;99.90
65146;DHT22;51730;56.950;24.126;2022-07-17T02:28:25;14.40;99.90
65146;DHT22;51730;56.950;24.126;2022-07-17T02:30:53;14.40;99.90
65146;DHT22;51730;56.950;24.126;2022-07-17T02:33:21;14.40;99.90
65146;DHT22;51730;56.950;24.126;2022-07-17T02:35:48;14.30;99.90
65146;DHT22;51730;56.950;24.126;2022-07-17T02:38:15;14.30;99.90
65146;DHT22;51730;56.950;24.126;2022-07-17T02:40:42;14.30;99.90
65146;DHT22;51730;56.950;24.126;2022-07-17T02:43:12;14.10;99.90
65146;DHT22;51730;56.950;24.126;2022-07-17T02:45:39;14.20;99.90
65146;DHT22;51730;56.950;24.126;2022-07-17T02:48:10;14.20;99.90
65146;DHT22;51730;56.950;24.126;2022-07-17T02:50:37;14.20;99.90
65146;DHT22;51730;56.950;24.126;2022-07-17T02:53:04;14.30;99.90
65146;DHT22;51730;56.950;24.126;2022-07-17T02:55:31;14.20;99.90
65146;DHT22;51730;56.950;24.126;2022-07-17T02:58:00;14.30;99.90
65146;DHT22;51730;56.950;24.126;2022-07-17T03:00:28;14.30;99.90
65146;DHT22;51730;56.950;24.126;2022-07-17T03:02:55;14.30;99.90
65146;DHT22;51730;56.950;24.126;2022-07-17T03:05:22;14.30;99.90
65146;DHT22;51730;56.950;24.126;2022-07-17T03:07:50;14.20;99.90
65146;DHT22;51730;56.950;24.126;2022-07-17T03:10:17;14.30;99.90
65146;DHT22;51730;56.950;24.126;2022-07-17T03:12:44;14.20;99.90
65146;DHT22;51730;56.950;24.126;2022-07-17T03:15:12;14.20;99.90
65146;DHT22;51730;56.950;24.126;2022-07-17T03:17:39;14.20;99.90
65146;DHT22;51730;56.950;24.126;2022-07-17T03:20:08;14.20;99.90
65146;DHT22;51730;56.950;24.126;2022-07-17T03:22:36;14.30;99.90
65146;DHT22;51730;56.950;24.126;2022-07-17T03:25:03;14.30;99.90
65146;DHT22;51730;56.950;24.126;2022-07-17T03:27:31;14.40;99.90
65146;DHT22;51730;56.950;24.126;2022-07-17T03:29:58;14.40;99.90
65146;DHT22;51730;56.950;24.126;2022-07-17T03:32:25;14.50;99.90
65146;DHT22;51730;56.950;24.126;2022-07-17T03:34:52;14.50;99.90
65146;DHT22;51730;56.950;24.126;2022-07-17T03:37:19;14.40;99.90
65146;DHT22;51730;56.950;24.126;2022-07-17T03:39:47;14.50;99.90
65146;DHT22;51730;56.950;24.126;2022-07-17T03:42:14;14.50;99.90
65146;DHT22;51730;56.950;24.126;2022-07-17T03:44:40;14.50;99.90
65146;DHT22;51730;56.950;24.126;2022-07-17T03:47:07;14.60;99.90
65146;DHT22;51730;56.950;24.126;2022-07-17T03:49:35;14.50;99.90
65146;DHT22;51730;56.950;24.126;2022-07-17T03:52:02;14.60;99.90
65146;DHT22;51730;56.950;24.126;2022-07-17T03:54:29;14.60;99.90
65146;DHT22;51730;56.950;24.126;2022-07-17T03:56:56;14.70;99.90
65146;DHT22;51730;56.950;24.126;2022-07-17T03:59:23;14.60;99.90
65146;DHT22;51730;56.950;24.126;2022-07-17T04:01:50;14.60;99.90
65146;DHT22;51730;56.950;24.126;2022-07-17T04:04:17;14.60;99.90
65146;DHT22;51730;56.950;24.126;2022-07-17T04:06:46;14.70;99.90
65146;DHT22;51730;56.950;24.126;2022-07-17T04:09:14;14.60;99.90
65146;DHT22;51730;56.950;24.126;2022-07-17T04:11:41;14.70;99.90
65146;DHT22;51730;56.950;24.126;2022-07-17T04:14:08;14.70;99.90
65146;DHT22;51730;56.950;24.126;2022-07-17T04:16:35;14.60;99.90
65146;DHT22;51730;56.950;24.126;2022-07-17T04:19:02;14.70;99.90
65146;DHT22;51730;56.950;24.126;2022-07-17T04:21:30;14.70;99.90
65146;DHT22;51730;56.950;24.126;2022-07-17T04:23:57;14.80;99.90
65146;DHT22;51730;56.950;24.126;2022-07-17T04:26:24;14.90;99.90
65146;DHT22;51730;56.950;24.126;2022-07-17T04:28:51;14.90;99.90
65146;DHT22;51730;56.950;24.126;2022-07-17T04:31:18;15.00;99.90
65146;DHT22;51730;56.950;24.126;2022-07-17T04:33:47;15.00;99.90
65146;DHT22;51730;56.950;24.126;2022-07-17T04:36:14;15.00;99.90
65146;DHT22;51730;56.950;24.126;2022-07-17T04:38:41;15.10;99.90
65146;DHT22;51730;56.950;24.126;2022-07-17T04:41:08;15.20;99.90
65146;DHT22;51730;56.950;24.126;2022-07-17T04:43:35;15.10;99.90
65146;DHT22;51730;56.950;24.126;2022-07-17T04:46:02;15.20;99.90
65146;DHT22;51730;56.950;24.126;2022-07-17T04:48:29;15.20;99.90
65146;DHT22;51730;56.950;24.126;2022-07-17T04:50:56;15.40;99.90
65146;DHT22;51730;56.950;24.126;2022-07-17T04:53:23;15.50;99.90
65146;DHT22;51730;56.950;24.126;2022-07-17T04:55:51;15.60;99.90
65146;DHT22;51730;56.950;24.126;2022-07-17T04:58:20;15.50;99.90
65146;DHT22;51730;56.950;24.126;2022-07-17T05:00:47;15.50;99.90
65146;DHT22;51730;56.950;24.126;2022-07-17T05:03:15;15.70;99.90
65146;DHT22;51730;56.950;24.126;2022-07-17T05:05:42;15.70;99.90
65146;DHT22;51730;56.950;24.126;2022-07-17T05:08:09;15.80;99.90
65146;DHT22;51730;56.950;24.126;2022-07-17T05:10:36;15.70;99.90
65146;DHT22;51730;56.950;24.126;2022-07-17T05:13:03;15.70;99.90
65146;DHT22;51730;56.950;24.126;2022-07-17T05:15:34;15.50;99.90
65146;DHT22;51730;56.950;24.126;2022-07-17T05:18:07;15.60;99.90
65146;DHT22;51730;56.950;24.126;2022-07-17T05:20:35;15.90;99.90
65146;DHT22;51730;56.950;24.126;2022-07-17T05:23:02;15.90;99.90
65146;DHT22;51730;56.950;24.126;2022-07-17T05:25:29;16.00;99.90
65146;DHT22;51730;56.950;24.126;2022-07-17T05:27:56;16.30;99.90
65146;DHT22;51730;56.950;24.126;2022-07-17T05:30:23;16.60;99.90
65146;DHT22;51730;56.950;24.126;2022-07-17T05:32:50;16.70;99.90
65146;DHT22;51730;56.950;24.126;2022-07-17T05:35:17;16.50;99.90
65146;DHT22;51730;56.950;24.126;2022-07-17T05:37:44;16.40;99.90
65146;DHT22;51730;56.950;24.126;2022-07-17T05:40:12;16.30;99.90
65146;DHT22;51730;56.950;24.126;2022-07-17T05:42:39;16.10;99.90
65146;DHT22;51730;56.950;24.126;2022-07-17T05:45:07;16.20;99.90
65146;DHT22;51730;56.950;24.126;2022-07-17T05:47:34;16.30;99.90
65146;DHT22;51730;56.950;24.126;2022-07-17T05:50:01;16.60;99.90
65146;DHT22;51730;56.950;24.126;2022-07-17T05:52:28;16.70;99.90
65146;DHT22;51730;56.950;24.126;2022-07-17T05:54:55;16.60;99.90
65146;DHT22;51730;56.950;24.126;2022-07-17T05:57:22;16.60;99.90
65146;DHT22;51730;56.950;24.126;2022-07-17T05:59:49;16.60;99.90
65146;DHT22;51730;56.950;24.126;2022-07-17T06:02:17;16.50;99.90
65146;DHT22;51730;56.950;24.126;2022-07-17T06:04:46;16.50;99.90
65146;DHT22;51730;56.950;24.126;2022-07-17T06:07:13;16.70;99.90
65146;DHT22;51730;56.950;24.126;2022-07-17T06:09:41;17.00;99.90
65146;DHT22;51730;56.950;24.126;2022-07-17T06:12:08;17.20;99.90
65146;DHT22;51730;56.950;24.126;2022-07-17T06:14:36;17.20;99.90
65146;DHT22;51730;56.950;24.126;2022-07-17T06:17:03;17.20;99.90
65146;DHT22;51730;56.950;24.126;2022-07-17T06:19:30;17.30;99.90
65146;DHT22;51730;56.950;24.126;2022-07-17T06:21:57;17.20;99.90
65146;DHT22;51730;56.950;24.126;2022-07-17T06:24:24;17.30;99.90
65146;DHT22;51730;56.950;24.126;2022-07-17T06:26:52;17.20;99.90
65146;DHT22;51730;56.950;24.126;2022-07-17T06:29:19;17.40;99.90
65146;DHT22;51730;56.950;24.126;2022-07-17T06:31:46;17.20;99.90
65146;DHT22;51730;56.950;24.126;2022-07-17T06:34:13;17.20;99.90
65146;DHT22;51730;56.950;24.126;2022-07-17T06:36:40;17.20;99.90
65146;DHT22;51730;56.950;24.126;2022-07-17T06:39:07;17.20;99.90
65146;DHT22;51730;56.950;24.126;2022-07-17T06:41:36;17.50;99.90
65146;DHT22;51730;56.950;24.126;2022-07-17T06:44:08;17.70;99.90
65146;DHT22;51730;56.950;24.126;2022-07-17T06:46:36;18.00;99.90
65146;DHT22;51730;56.950;24.126;2022-07-17T06:49:04;17.90;99.90
65146;DHT22;51730;56.950;24.126;2022-07-17T06:51:31;17.70;99.90
65146;DHT22;51730;56.950;24.126;2022-07-17T06:53:58;17.80;99.90
65146;DHT22;51730;56.950;24.126;2022-07-17T06:56:26;17.70;99.90
65146;DHT22;51730;56.950;24.126;2022-07-17T06:58:53;17.50;99.90
65146;DHT22;51730;56.950;24.126;2022-07-17T07:01:20;17.50;99.90
65146;DHT22;51730;56.950;24.126;2022-07-17T07:03:47;17.50;99.90
65146;DHT22;51730;56.950;24.126;2022-07-17T07:06:15;17.60;99.90
65146;DHT22;51730;56.950;24.126;2022-07-17T07:08:42;17.80;99.90
65146;DHT22;51730;56.950;24.126;2022-07-17T07:11:12;17.80;99.90
65146;DHT22;51730;56.950;24.126;2022-07-17T07:13:39;18.10;99.90
65146;DHT22;51730;56.950;24.126;2022-07-17T07:16:07;18.10;99.90
65146;DHT22;51730;56.950;24.126;2022-07-17T07:18:34;18.40;99.40
65146;DHT22;51730;56.950;24.126;2022-07-17T07:21:01;18.00;99.90
65146;DHT22;51730;56.950;24.126;2022-07-17T07:23:29;17.90;99.90
65146;DHT22;51730;56.950;24.126;2022-07-17T07:25:56;18.00;99.90
65146;DHT22;51730;56.950;24.126;2022-07-17T07:28:26;18.00;99.90
65146;DHT22;51730;56.950;24.126;2022-07-17T07:30:58;18.30;99.90
65146;DHT22;51730;56.950;24.126;2022-07-17T07:33:31;18.40;99.90
65146;DHT22;51730;56.950;24.126;2022-07-17T07:36:01;18.20;99.90
65146;DHT22;51730;56.950;24.126;2022-07-17T07:38:30;18.30;99.90
65146;DHT22;51730;56.950;24.126;2022-07-17T07:40:57;18.60;99.90
65146;DHT22;51730;56.950;24.126;2022-07-17T07:43:25;18.60;99.90
65146;DHT22;51730;56.950;24.126;2022-07-17T07:45:52;18.30;99.90
65146;DHT22;51730;56.950;24.126;2022-07-17T07:48:24;18.30;99.90
65146;DHT22;51730;56.950;24.126;2022-07-17T07:50:53;18.10;99.90
65146;DHT22;51730;56.950;24.126;2022-07-17T07:53:28;18.40;99.90
65146;DHT22;51730;56.950;24.126;2022-07-17T07:56:08;18.50;99.90
65146;DHT22;51730;56.950;24.126;2022-07-17T07:58:39;18.70;99.90
65146;DHT22;51730;56.950;24.126;2022-07-17T08:01:06;19.10;99.90
65146;DHT22;51730;56.950;24.126;2022-07-17T08:03:36;19.30;99.10
65146;DHT22;51730;56.950;24.126;2022-07-17T08:06:04;19.10;99.90
65146;DHT22;51730;56.950;24.126;2022-07-17T08:08:31;18.90;99.50
65146;DHT22;51730;56.950;24.126;2022-07-17T08:11:05;18.90;99.90
65146;DHT22;51730;56.950;24.126;2022-07-17T08:13:32;18.80;99.90
65146;DHT22;51730;56.950;24.126;2022-07-17T08:16:00;19.00;99.90
65146;DHT22;51730;56.950;24.126;2022-07-17T08:18:27;18.90;99.80
65146;DHT22;51730;56.950;24.126;2022-07-17T08:20:54;18.80;99.90
65146;DHT22;51730;56.950;24.126;2022-07-17T08:23:22;18.50;99.90
65146;DHT22;51730;56.950;24.126;2022-07-17T08:25:49;18.60;99.90
65146;DHT22;51730;56.950;24.126;2022-07-17T08:28:16;18.60;99.90
65146;DHT22;51730;56.950;24.126;2022-07-17T08:30:44;18.80;99.90
65146;DHT22;51730;56.950;24.126;2022-07-17T08:33:13;19.00;99.90
65146;DHT22;51730;56.950;24.126;2022-07-17T08:35:42;19.00;99.90
65146;DHT22;51730;56.950;24.126;2022-07-17T08:38:11;18.80;99.60
65146;DHT22;51730;56.950;24.126;2022-07-17T08:40:39;19.00;99.80
65146;DHT22;51730;56.950;24.126;2022-07-17T08:43:07;19.40;94.90
65146;DHT22;51730;56.950;24.126;2022-07-17T08:45:36;19.50;94.00
65146;DHT22;51730;56.950;24.126;2022-07-17T08:48:13;19.30;93.50
65146;DHT22;51730;56.950;24.126;2022-07-17T08:50:45;19.30;95.40
65146;DHT22;51730;56.950;24.126;2022-07-17T08:53:12;19.00;92.50
65146;DHT22;51730;56.950;24.126;2022-07-17T08:55:39;19.30;92.40
65146;DHT22;51730;56.950;24.126;2022-07-17T08:58:14;19.50;91.60
65146;DHT22;51730;56.950;24.126;2022-07-17T09:00:42;19.20;95.10
65146;DHT22;51730;56.950;24.126;2022-07-17T09:03:10;19.30;94.70
65146;DHT22;51730;56.950;24.126;2022-07-17T09:05:40;19.10;94.30
65146;DHT22;51730;56.950;24.126;2022-07-17T09:08:18;19.00;95.50
65146;DHT22;51730;56.950;24.126;2022-07-17T09:10:48;19.50;92.80
65146;DHT22;51730;56.950;24.126;2022-07-17T09:15:57;19.50;90.50
65146;DHT22;51730;56.950;24.126;2022-07-17T09:18:25;19.60;90.70
65146;DHT22;51730;56.950;24.126;2022-07-17T09:20:54;19.40;91.70
65146;DHT22;51730;56.950;24.126;2022-07-17T09:23:25;19.30;92.00
65146;DHT22;51730;56.950;24.126;2022-07-17T09:25:55;19.30;92.10
65146;DHT22;51730;56.950;24.126;2022-07-17T09:28:23;19.20;94.20
65146;DHT22;51730;56.950;24.126;2022-07-17T09:30:53;19.40;95.60
65146;DHT22;51730;56.950;24.126;2022-07-17T09:33:24;19.60;92.40
65146;DHT22;51730;56.950;24.126;2022-07-17T09:35:57;20.00;89.60
65146;DHT22;51730;56.950;24.126;2022-07-17T09:38:38;19.50;90.70
65146;DHT22;51730;56.950;24.126;2022-07-17T09:43:54;19.50;91.00
65146;DHT22;51730;56.950;24.126;2022-07-17T09:46:26;19.60;90.90
65146;DHT22;51730;56.950;24.126;2022-07-17T09:48:59;20.00;85.20
65146;DHT22;51730;56.950;24.126;2022-07-17T09:51:29;20.40;80.30
65146;DHT22;51730;56.950;24.126;2022-07-17T09:53:59;20.70;76.90
65146;DHT22;51730;56.950;24.126;2022-07-17T09:56:30;20.80;75.90
65146;DHT22;51730;56.950;24.126;2022-07-17T09:59:05;20.80;73.40
65146;DHT22;51730;56.950;24.126;2022-07-17T10:01:34;20.40;76.20
65146;DHT22;51730;56.950;24.126;2022-07-17T10:04:03;20.50;79.10
65146;DHT22;51730;56.950;24.126;2022-07-17T10:06:31;20.50;79.10
65146;DHT22;51730;56.950;24.126;2022-07-17T10:09:00;20.80;76.70
65146;DHT22;51730;56.950;24.126;2022-07-17T10:11:32;21.10;74.10
65146;DHT22;51730;56.950;24.126;2022-07-17T10:14:06;20.80;75.60
65146;DHT22;51730;56.950;24.126;2022-07-17T10:16:35;19.60;93.10
65146;DHT22;51730;56.950;24.126;2022-07-17T10:19:24;19.30;98.00
65146;DHT22;51730;56.950;24.126;2022-07-17T10:21:59;19.10;99.90
65146;DHT22;51730;56.950;24.126;2022-07-17T10:24:29;19.10;99.90
65146;DHT22;51730;56.950;24.126;2022-07-17T10:26:58;19.30;99.90
65146;DHT22;51730;56.950;24.126;2022-07-17T10:29:35;19.40;99.90
65146;DHT22;51730;56.950;24.126;2022-07-17T10:32:16;19.10;99.90
65146;DHT22;51730;56.950;24.126;2022-07-17T10:34:54;19.00;99.90
65146;DHT22;51730;56.950;24.126;2022-07-17T10:37:26;19.10;99.90
65146;DHT22;51730;56.950;24.126;2022-07-17T10:40:06;19.30;99.90
65146;DHT22;51730;56.950;24.126;2022-07-17T10:45:22;19.00;99.90
65146;DHT22;51730;56.950;24.126;2022-07-17T10:47:53;19.10;99.90
65146;DHT22;51730;56.950;24.126;2022-07-17T10:50:33;19.20;99.90
65146;DHT22;51730;56.950;24.126;2022-07-17T10:55:37;19.10;99.90
65146;DHT22;51730;56.950;24.126;2022-07-17T10:58:21;19.00;99.90
65146;DHT22;51730;56.950;24.126;2022-07-17T11:03:51;18.90;99.90
65146;DHT22;51730;56.950;24.126;2022-07-17T11:08:58;18.90;99.90
65146;DHT22;51730;56.950;24.126;2022-07-17T11:11:47;19.20;99.90
65146;DHT22;51730;56.950;24.126;2022-07-17T11:14:17;19.40;99.90
65146;DHT22;51730;56.950;24.126;2022-07-17T11:16:54;19.50;99.90
65146;DHT22;51730;56.950;24.126;2022-07-17T11:21:53;19.70;99.30
65146;DHT22;51730;56.950;24.126;2022-07-17T11:24:22;19.60;98.90
65146;DHT22;51730;56.950;24.126;2022-07-17T11:26:50;19.40;99.90
65146;DHT22;51730;56.950;24.126;2022-07-17T11:29:20;19.40;99.90
65146;DHT22;51730;56.950;24.126;2022-07-17T11:31:55;19.60;99.90
65146;DHT22;51730;56.950;24.126;2022-07-17T11:34:25;19.50;99.90
65146;DHT22;51730;56.950;24.126;2022-07-17T11:37:02;19.30;99.90
65146;DHT22;51730;56.950;24.126;2022-07-17T11:39:46;19.30;99.90
65146;DHT22;51730;56.950;24.126;2022-07-17T11:42:19;19.00;99.90
65146;DHT22;51730;56.950;24.126;2022-07-17T11:44:50;19.20;99.90
65146;DHT22;51730;56.950;24.126;2022-07-17T11:47:23;19.20;99.90
65146;DHT22;51730;56.950;24.126;2022-07-17T11:49:51;19.60;98.90
65146;DHT22;51730;56.950;24.126;2022-07-17T11:52:20;19.90;97.50
65146;DHT22;51730;56.950;24.126;2022-07-17T11:54:53;19.80;95.90
65146;DHT22;51730;56.950;24.126;2022-07-17T11:57:26;19.80;96.10
65146;DHT22;51730;56.950;24.126;2022-07-17T12:00:08;19.90;96.10
65146;DHT22;51730;56.950;24.126;2022-07-17T12:02:35;20.10;95.80
65146;DHT22;51730;56.950;24.126;2022-07-17T12:05:04;20.30;94.50
65146;DHT22;51730;56.950;24.126;2022-07-17T12:07:42;20.30;94.80
65146;DHT22;51730;56.950;24.126;2022-07-17T12:10:19;20.50;94.10
65146;DHT22;51730;56.950;24.126;2022-07-17T12:15:48;20.80;91.40
65146;DHT22;51730;56.950;24.126;2022-07-17T12:18:25;20.60;91.90
65146;DHT22;51730;56.950;24.126;2022-07-17T12:21:03;20.00;91.30
65146;DHT22;51730;56.950;24.126;2022-07-17T12:23:37;20.00;91.00
65146;DHT22;51730;56.950;24.126;2022-07-17T12:26:09;19.50;89.70
65146;DHT22;51730;56.950;24.126;2022-07-17T12:28:38;19.60;90.80
65146;DHT22;51730;56.950;24.126;2022-07-17T12:31:07;20.00;83.30
65146;DHT22;51730;56.950;24.126;2022-07-17T12:33:34;20.30;79.20
65146;DHT22;51730;56.950;24.126;2022-07-17T12:36:02;20.40;73.80
65146;DHT22;51730;56.950;24.126;2022-07-17T12:38:29;20.70;74.10
65146;DHT22;51730;56.950;24.126;2022-07-17T12:40:56;20.60;76.00
65146;DHT22;51730;56.950;24.126;2022-07-17T12:43:24;20.10;79.90
65146;DHT22;51730;56.950;24.126;2022-07-17T12:45:51;19.90;79.80
65146;DHT22;51730;56.950;24.126;2022-07-17T12:48:19;20.10;79.10
65146;DHT22;51730;56.950;24.126;2022-07-17T12:50:46;19.90;81.40
65146;DHT22;51730;56.950;24.126;2022-07-17T12:53:13;19.90;84.40
65146;DHT22;51730;56.950;24.126;2022-07-17T12:55:40;19.80;83.70
65146;DHT22;51730;56.950;24.126;2022-07-17T12:58:07;19.80;87.20
65146;DHT22;51730;56.950;24.126;2022-07-17T13:00:35;19.50;90.80
65146;DHT22;51730;56.950;24.126;2022-07-17T13:03:03;19.70;90.00
65146;DHT22;51730;56.950;24.126;2022-07-17T13:05:30;19.40;91.90
65146;DHT22;51730;56.950;24.126;2022-07-17T13:07:58;19.50;91.80
65146;DHT22;51730;56.950;24.126;2022-07-17T13:10:39;20.00;89.80
65146;DHT22;51730;56.950;24.126;2022-07-17T13:13:07;20.10;89.20
65146;DHT22;51730;56.950;24.126;2022-07-17T13:15:43;20.40;81.50
65146;DHT22;51730;56.950;24.126;2022-07-17T13:18:12;20.60;79.80
65146;DHT22;51730;56.950;24.126;2022-07-17T13:20:40;20.60;80.30
65146;DHT22;51730;56.950;24.126;2022-07-17T13:23:07;20.50;79.80
65146;DHT22;51730;56.950;24.126;2022-07-17T13:25:34;20.60;76.50
65146;DHT22;51730;56.950;24.126;2022-07-17T13:28:02;20.50;78.70
65146;DHT22;51730;56.950;24.126;2022-07-17T13:30:32;19.80;83.70
65146;DHT22;51730;56.950;24.126;2022-07-17T13:32:59;19.50;90.70
65146;DHT22;51730;56.950;24.126;2022-07-17T13:35:26;19.60;91.20
65146;DHT22;51730;56.950;24.126;2022-07-17T13:37:53;19.40;90.50
65146;DHT22;51730;56.950;24.126;2022-07-17T13:40:20;19.30;92.40
65146;DHT22;51730;56.950;24.126;2022-07-17T13:42:48;19.60;92.60
65146;DHT22;51730;56.950;24.126;2022-07-17T13:45:15;19.50;86.30
65146;DHT22;51730;56.950;24.126;2022-07-17T13:47:42;19.90;86.50
65146;DHT22;51730;56.950;24.126;2022-07-17T13:50:10;19.80;79.60
65146;DHT22;51730;56.950;24.126;2022-07-17T13:52:40;19.90;83.50
65146;DHT22;51730;56.950;24.126;2022-07-17T13:55:08;19.80;85.40
65146;DHT22;51730;56.950;24.126;2022-07-17T13:57:55;19.80;88.50
65146;DHT22;51730;56.950;24.126;2022-07-17T14:00:22;20.10;90.10
65146;DHT22;51730;56.950;24.126;2022-07-17T14:02:50;20.30;84.90
65146;DHT22;51730;56.950;24.126;2022-07-17T14:05:17;20.30;82.00
65146;DHT22;51730;56.950;24.126;2022-07-17T14:07:44;20.10;87.20
65146;DHT22;51730;56.950;24.126;2022-07-17T14:10:11;19.90;89.00
65146;DHT22;51730;56.950;24.126;2022-07-17T14:12:38;19.90;90.70
65146;DHT22;51730;56.950;24.126;2022-07-17T14:15:06;19.90;91.20
65146;DHT22;51730;56.950;24.126;2022-07-17T14:17:34;20.10;79.40
65146;DHT22;51730;56.950;24.126;2022-07-17T14:20:02;20.20;83.10
65146;DHT22;51730;56.950;24.126;2022-07-17T14:22:30;20.40;75.50
65146;DHT22;51730;56.950;24.126;2022-07-17T14:24:57;20.10;78.90
65146;DHT22;51730;56.950;24.126;2022-07-17T14:27:24;19.90;83.10
65146;DHT22;51730;56.950;24.126;2022-07-17T14:29:51;19.80;82.40
65146;DHT22;51730;56.950;24.126;2022-07-17T14:32:19;19.80;73.30
65146;DHT22;51730;56.950;24.126;2022-07-17T14:34:46;19.80;73.50
65146;DHT22;51730;56.950;24.126;2022-07-17T14:37:13;19.90;71.30
65146;DHT22;51730;56.950;24.126;2022-07-17T14:39:41;19.80;68.60
65146;DHT22;51730;56.950;24.126;2022-07-17T14:42:08;19.80;65.90
65146;DHT22;51730;56.950;24.126;2022-07-17T14:44:35;19.90;65.60
65146;DHT22;51730;56.950;24.126;2022-07-17T14:47:02;19.80;65.30
65146;DHT22;51730;56.950;24.126;2022-07-17T14:49:29;19.50;66.90
65146;DHT22;51730;56.950;24.126;2022-07-17T14:51:56;19.50;69.20
65146;DHT22;51730;56.950;24.126;2022-07-17T14:54:23;19.70;67.70
65146;DHT22;51730;56.950;24.126;2022-07-17T14:56:50;19.80;68.20
65146;DHT22;51730;56.950;24.126;2022-07-17T14:59:17;19.60;68.50
65146;DHT22;51730;56.950;24.126;2022-07-17T15:01:44;19.60;68.30
65146;DHT22;51730;56.950;24.126;2022-07-17T15:04:12;19.90;66.90
65146;DHT22;51730;56.950;24.126;2022-07-17T15:06:39;20.00;66.70
65146;DHT22;51730;56.950;24.126;2022-07-17T15:09:08;19.80;66.50
65146;DHT22;51730;56.950;24.126;2022-07-17T15:11:35;19.80;67.50
65146;DHT22;51730;56.950;24.126;2022-07-17T15:14:02;19.80;65.70
65146;DHT22;51730;56.950;24.126;2022-07-17T15:16:30;19.80;67.50
65146;DHT22;51730;56.950;24.126;2022-07-17T15:18:57;19.80;66.60
65146;DHT22;51730;56.950;24.126;2022-07-17T15:21:24;19.80;68.30
65146;DHT22;51730;56.950;24.126;2022-07-17T15:24:11;19.80;67.80
65146;DHT22;51730;56.950;24.126;2022-07-17T15:26:38;19.60;67.40
65146;DHT22;51730;56.950;24.126;2022-07-17T15:29:13;19.50;69.30
65146;DHT22;51730;56.950;24.126;2022-07-17T15:31:41;19.60;69.40
65146;DHT22;51730;56.950;24.126;2022-07-17T15:34:08;19.70;71.30
65146;DHT22;51730;56.950;24.126;2022-07-17T15:36:35;19.60;67.80
65146;DHT22;51730;56.950;24.126;2022-07-17T15:39:02;19.50;68.70
65146;DHT22;51730;56.950;24.126;2022-07-17T15:41:30;19.50;69.80
65146;DHT22;51730;56.950;24.126;2022-07-17T15:43:57;19.60;68.10
65146;DHT22;51730;56.950;24.126;2022-07-17T15:46:24;19.60;66.60